Time;durP1;ratioP1;P1;durP2;ratioP2;P2;SDS_P1;SDS_P2;PMS_P1;PMS_P2;Temp;Humidity;BMP_temperature;BMP_pressure;BME280_temperature;BME280_humidity;BME280_pressure;Samples;Min_cycle;Max_cycle;Signal;HPM_P1;HPM_P2
2022/11/02 00:02:15;;;;;;;5.43;1.58;;;11.20;99.90;;;;;;5015975;28;20025;-49
2022/11/02 00:04:41;;;;;;;4.43;2.10;;;11.20;99.90;;;;;;5024530;28;20473;-54
2022/11/02 00:07:06;;;;;;;2.20;1.40;;;11.20;99.90;;;;;;5021446;28;20108;-50
2022/11/02 00:09:32;;;;;;;8.10;1.83;;;11.20;99.90;;;;;;5018055;28;20529;-50
2022/11/02 00:11:57;;;;;;;4.25;1.20;;;11.20;99.90;;;;;;5014547;28;20033;-48
2022/11/02 00:14:23;;;;;;;5.65;1.88;;;11.20;99.90;;;;;;5022654;28;20027;-54
2022/11/02 00:16:49;;;;;;;4.93;1.63;;;11.20;99.90;;;;;;5019995;28;20084;-51
2022/11/02 00:19:15;;;;;;;5.38;1.55;;;11.20;99.90;;;;;;5018539;28;20025;-48
2022/11/02 00:21:40;;;;;;;6.20;1.58;;;11.20;99.90;;;;;;5022416;28;20030;-51
2022/11/02 00:24:07;;;;;;;4.65;1.60;;;11.20;99.90;;;;;;5014842;28;20036;-51
2022/11/02 00:26:35;;;;;;;2.78;1.58;;;11.20;99.90;;;;;;5018189;28;20045;-50
2022/11/02 00:29:01;;;;;;;5.22;1.88;;;11.20;99.90;;;;;;5015174;28;20053;-51
2022/11/02 00:31:27;;;;;;;6.80;1.83;;;11.20;99.90;;;;;;5020161;28;20056;-48
2022/11/02 00:33:53;;;;;;;8.90;1.70;;;11.20;99.90;;;;;;5021347;28;20025;-50
2022/11/02 00:36:19;;;;;;;4.07;0.85;;;11.20;99.90;;;;;;5025828;28;20026;-49
2022/11/02 00:38:45;;;;;;;5.20;1.48;;;11.10;99.90;;;;;;5016938;28;20030;-48
2022/11/02 00:41:11;;;;;;;6.35;1.42;;;11.10;99.90;;;;;;5018684;28;20060;-55
2022/11/02 00:43:37;;;;;;;4.47;1.30;;;11.10;99.90;;;;;;5019606;28;20029;-50
2022/11/02 00:46:03;;;;;;;6.32;1.60;;;11.10;99.90;;;;;;5022289;28;20037;-48
2022/11/02 00:48:28;;;;;;;5.57;1.80;;;11.10;99.90;;;;;;5025048;28;20030;-48
2022/11/02 00:50:54;;;;;;;5.30;1.30;;;11.10;99.90;;;;;;5016809;28;20057;-48
2022/11/02 00:53:19;;;;;;;6.05;2.20;;;11.10;99.90;;;;;;5014648;28;20065;-53
2022/11/02 00:55:46;;;;;;;5.10;1.90;;;11.10;99.90;;;;;;5009758;28;20022;-50
2022/11/02 00:58:12;;;;;;;6.38;1.58;;;11.10;99.90;;;;;;5013899;28;20511;-52
2022/11/02 01:00:38;;;;;;;7.15;1.27;;;11.10;99.90;;;;;;5018298;28;20538;-50
2022/11/02 01:03:03;;;;;;;6.20;1.63;;;11.10;99.90;;;;;;5021377;28;20061;-51
2022/11/02 01:05:29;;;;;;;5.65;2.08;;;11.10;99.90;;;;;;5017232;28;20065;-49
2022/11/02 01:07:55;;;;;;;3.42;1.52;;;11.10;99.90;;;;;;5021453;28;20075;-49
2022/11/02 01:10:24;;;;;;;5.10;1.27;;;11.10;99.90;;;;;;5019836;28;20123;-51
2022/11/02 01:12:50;;;;;;;2.55;1.40;;;11.10;99.90;;;;;;5015202;28;20022;-49
2022/11/02 01:15:16;;;;;;;3.88;1.35;;;11.10;99.90;;;;;;5022196;28;20033;-48
2022/11/02 01:17:41;;;;;;;4.35;1.88;;;11.10;99.90;;;;;;5018815;28;20026;-47
2022/11/02 01:20:08;;;;;;;12.75;2.10;;;11.20;99.90;;;;;;5022381;28;20041;-50
2022/11/02 01:22:33;;;;;;;5.72;1.23;;;11.20;99.90;;;;;;5017757;28;20088;-50
2022/11/02 01:24:59;;;;;;;4.78;1.55;;;11.20;99.90;;;;;;5022038;28;20017;-50
2022/11/02 01:27:24;;;;;;;7.90;1.95;;;11.20;99.90;;;;;;5015083;28;20019;-51
2022/11/02 01:29:50;;;;;;;5.05;1.83;;;11.20;99.90;;;;;;5015554;28;20026;-48
2022/11/02 01:32:15;;;;;;;6.70;1.40;;;11.20;99.90;;;;;;5015954;28;20026;-50
2022/11/02 01:34:42;;;;;;;6.32;1.75;;;11.20;99.90;;;;;;5018475;28;20023;-51
2022/11/02 01:37:08;;;;;;;6.15;1.63;;;11.20;99.90;;;;;;5018863;28;20389;-48
2022/11/02 01:39:34;;;;;;;5.40;1.30;;;11.10;99.90;;;;;;5001471;28;20018;-49
2022/11/02 01:42:00;;;;;;;8.25;1.50;;;11.10;99.90;;;;;;5025308;28;20112;-48
2022/11/02 01:44:31;;;;;;;4.15;1.20;;;11.10;99.90;;;;;;5017906;28;20049;-47
2022/11/02 01:47:25;;;;;;;6.40;1.92;;;11.10;99.90;;;;;;5020706;28;20080;-48
2022/11/02 01:49:56;;;;;;;7.72;1.63;;;11.10;99.90;;;;;;5011338;28;20029;-51
2022/11/02 01:52:29;;;;;;;4.00;1.48;;;11.10;99.90;;;;;;5011724;28;20034;-50
2022/11/02 01:55:28;;;;;;;5.80;2.22;;;11.00;99.90;;;;;;5016240;28;20056;-47
2022/11/02 01:58:03;;;;;;;4.60;1.65;;;11.00;99.90;;;;;;5016128;28;20042;-51
2022/11/02 02:00:29;;;;;;;4.53;1.40;;;11.00;99.90;;;;;;5019001;28;20032;-49
2022/11/02 02:03:00;;;;;;;8.70;2.33;;;11.00;99.90;;;;;;5018496;28;20034;-49
2022/11/02 02:05:28;;;;;;;3.70;1.42;;;11.00;99.90;;;;;;5021732;28;20035;-48
2022/11/02 02:07:55;;;;;;;8.98;1.30;;;11.00;99.90;;;;;;5015015;28;20026;-51
2022/11/02 02:10:20;;;;;;;7.35;1.70;;;11.00;99.90;;;;;;5023898;28;20532;-51
2022/11/02 02:12:46;;;;;;;7.45;1.52;;;11.00;99.90;;;;;;5017203;28;20042;-49
2022/11/02 02:15:13;;;;;;;6.80;1.55;;;11.00;99.90;;;;;;5019674;28;20037;-52
2022/11/02 02:17:59;;;;;;;3.83;1.55;;;11.10;99.90;;;;;;5022275;28;20087;-50
2022/11/02 02:20:40;;;;;;;6.72;1.60;;;11.10;99.90;;;;;;5010573;28;20027;-51
2022/11/02 02:23:32;;;;;;;7.25;1.55;;;11.10;99.90;;;;;;5019189;28;20048;-51
2022/11/02 02:26:22;;;;;;;4.70;1.50;;;11.10;99.90;;;;;;5022969;28;20129;-50
2022/11/02 02:28:53;;;;;;;6.60;1.33;;;11.20;99.90;;;;;;5017317;28;20025;-52
2022/11/02 02:31:35;;;;;;;4.53;2.20;;;11.20;99.90;;;;;;5011685;28;20021;-48
2022/11/02 02:34:19;;;;;;;6.82;1.40;;;11.30;99.90;;;;;;5018589;28;20061;-52
2022/11/02 02:36:48;;;;;;;7.80;1.85;;;11.30;99.90;;;;;;5015642;28;20022;-49
2022/11/02 02:39:26;;;;;;;8.57;2.00;;;11.30;99.90;;;;;;5020887;28;20053;-52
2022/11/02 02:42:18;;;;;;;6.55;1.80;;;11.40;99.90;;;;;;5018398;28;20157;-50
2022/11/02 02:45:16;;;;;;;6.63;1.95;;;11.40;99.90;;;;;;5015522;28;20026;-52
2022/11/02 02:47:49;;;;;;;11.13;1.73;;;11.40;99.90;;;;;;4968402;28;20030;-50
2022/11/02 02:50:24;;;;;;;7.40;1.80;;;11.50;99.90;;;;;;5011786;28;20103;-51
2022/11/02 02:52:51;;;;;;;5.00;1.55;;;11.50;99.90;;;;;;5033381;23;20050;-52
2022/11/02 02:55:26;;;;;;;5.10;1.65;;;11.50;99.90;;;;;;5024117;28;20063;-54
2022/11/02 02:57:55;;;;;;;9.20;2.17;;;11.50;99.90;;;;;;5016603;28;20539;-53
2022/11/02 03:00:20;;;;;;;4.43;1.40;;;11.50;99.90;;;;;;5021557;28;20021;-50
2022/11/02 03:02:59;;;;;;;5.78;2.05;;;11.50;99.90;;;;;;5018515;28;20542;-54
2022/11/02 03:05:33;;;;;;;3.58;1.23;;;11.50;99.90;;;;;;5012329;28;20021;-54
2022/11/02 03:08:15;;;;;;;5.45;1.17;;;11.40;99.90;;;;;;5017676;28;20100;-52
2022/11/02 03:10:49;;;;;;;8.05;2.15;;;11.30;99.90;;;;;;5021312;28;20022;-52
2022/11/02 03:13:24;;;;;;;6.38;1.75;;;11.30;99.90;;;;;;5017282;28;20021;-52
2022/11/02 03:15:58;;;;;;;6.43;2.42;;;11.20;99.90;;;;;;5020775;28;20025;-51
2022/11/02 03:18:50;;;;;;;9.55;1.60;;;11.20;99.90;;;;;;5008721;28;20053;-55
2022/11/02 03:21:26;;;;;;;8.18;1.85;;;11.10;99.90;;;;;;4987818;28;20060;-57
2022/11/02 03:24:04;;;;;;;6.68;1.50;;;11.10;99.90;;;;;;5017629;28;20606;-51
2022/11/02 03:26:51;;;;;;;5.78;2.05;;;11.00;99.90;;;;;;5021047;28;20030;-56
2022/11/02 03:29:37;;;;;;;9.35;2.85;;;11.00;99.90;;;;;;5015932;28;20021;-56
2022/11/02 03:32:08;;;;;;;;;;;11.10;99.90;;;;;;5012607;28;20034;-55
2022/11/02 03:34:42;;;;;;;5.72;1.80;;;11.10;99.90;;;;;;5020798;28;19916;-54
2022/11/02 03:37:29;;;;;;;5.25;1.27;;;11.10;99.90;;;;;;5020907;28;20060;-52
2022/11/02 03:40:12;;;;;;;5.78;1.38;;;11.10;99.90;;;;;;5011171;28;20018;-55
2022/11/02 03:42:40;;;;;;;7.20;1.35;;;11.10;99.90;;;;;;5012825;28;20041;-51
2022/11/02 03:45:12;;;;;;;6.63;1.30;;;11.10;99.90;;;;;;5017841;28;20079;-52
2022/11/02 03:47:39;;;;;;;5.90;1.67;;;11.10;99.90;;;;;;5018283;28;20034;-53
2022/11/02 03:50:08;;;;;;;6.18;1.65;;;11.10;99.90;;;;;;5020309;28;20058;-52
2022/11/02 03:52:39;;;;;;;5.20;1.42;;;11.20;99.90;;;;;;5008858;28;20053;-55
2022/11/02 03:55:23;;;;;;;10.73;1.55;;;11.20;99.90;;;;;;5020010;28;20052;-51
2022/11/02 03:57:50;;;;;;;7.18;1.83;;;11.30;99.90;;;;;;5019033;28;20049;-53
2022/11/02 04:00:19;;;;;;;8.73;1.63;;;11.20;99.90;;;;;;5013067;28;20036;-51
2022/11/02 04:02:54;;;;;;;8.82;2.13;;;11.30;99.90;;;;;;5014853;28;20057;-52
2022/11/02 04:05:27;;;;;;;5.53;1.63;;;11.30;99.90;;;;;;5008153;28;20104;-51
2022/11/02 04:14:36;;;;;;;10.23;2.63;;;11.30;99.90;;;;;;5013094;28;20103;-52
2022/11/02 04:16:08;;;;;;;8.43;1.65;;;11.40;99.90;;;;;;5014835;28;20554;-51
2022/11/02 04:21:18;;;;;;;7.47;1.77;;;11.40;99.90;;;;;;5009312;28;20036;-54
2022/11/02 04:26:27;;;;;;;6.78;1.73;;;11.40;99.90;;;;;;5009072;28;20029;-52
2022/11/02 04:28:53;;;;;;;7.88;1.92;;;11.40;99.90;;;;;;5018452;28;20030;-51
2022/11/02 04:31:19;;;;;;;5.25;1.40;;;11.40;99.90;;;;;;5015955;28;20026;-52
2022/11/02 04:33:44;;;;;;;7.18;1.67;;;11.40;99.90;;;;;;5017052;28;20029;-52
2022/11/02 04:36:10;;;;;;;10.35;1.58;;;11.40;99.90;;;;;;5015492;28;20104;-50
2022/11/02 04:38:42;;;;;;;5.55;1.75;;;11.50;99.90;;;;;;5020606;28;20057;-53
2022/11/02 04:43:56;;;;;;;11.05;2.08;;;11.40;99.90;;;;;;5021994;28;20605;-51
2022/11/02 04:46:24;;;;;;;6.68;2.10;;;11.40;99.90;;;;;;5019952;28;20031;-50
2022/11/02 04:48:50;;;;;;;3.33;1.30;;;11.40;99.90;;;;;;5021172;28;20101;-51
2022/11/02 04:51:16;;;;;;;7.18;1.52;;;11.40;99.90;;;;;;5020394;28;20522;-51
2022/11/02 04:53:42;;;;;;;3.28;1.10;;;11.40;99.90;;;;;;5019446;28;20029;-50
2022/11/02 04:56:08;;;;;;;6.45;2.20;;;11.40;99.90;;;;;;5022435;28;20038;-53
2022/11/02 04:58:34;;;;;;;3.53;1.25;;;11.40;99.90;;;;;;5017835;28;20026;-50
2022/11/02 05:01:14;;;;;;;5.25;2.20;;;11.40;99.90;;;;;;5015725;28;20045;-51
2022/11/02 05:03:41;;;;;;;6.00;1.88;;;11.50;99.90;;;;;;5015026;28;20030;-52
2022/11/02 05:06:08;;;;;;;8.27;2.05;;;11.40;99.90;;;;;;5020174;28;20053;-50
2022/11/02 05:08:35;;;;;;;4.80;1.75;;;11.40;99.90;;;;;;5019106;28;20025;-53
2022/11/02 05:11:00;;;;;;;4.68;1.55;;;11.40;99.90;;;;;;5015799;28;20026;-53
2022/11/02 05:13:26;;;;;;;6.50;1.63;;;11.40;99.90;;;;;;5020393;28;20424;-50
2022/11/02 05:15:56;;;;;;;8.57;1.75;;;11.40;99.90;;;;;;5013502;28;20030;-52
2022/11/02 05:18:22;;;;;;;7.78;1.40;;;11.40;99.90;;;;;;5012110;28;20037;-55
2022/11/02 05:20:53;;;;;;;6.65;1.77;;;11.40;99.90;;;;;;5013359;28;20032;-54
2022/11/02 05:23:20;;;;;;;6.95;1.98;;;11.30;99.90;;;;;;5032011;28;20033;-54
2022/11/02 05:26:00;;;;;;;5.10;2.00;;;11.30;99.90;;;;;;5018623;28;20710;-51
2022/11/02 05:28:27;;;;;;;6.78;1.95;;;11.30;99.90;;;;;;5014279;28;20133;-55
2022/11/02 05:30:53;;;;;;;8.27;1.63;;;11.30;99.90;;;;;;5003812;28;20018;-51
2022/11/02 05:33:19;;;;;;;7.47;2.10;;;11.30;99.90;;;;;;5018736;28;20041;-52
2022/11/02 05:35:45;;;;;;;9.65;2.78;;;11.40;99.90;;;;;;5019122;28;20400;-51
2022/11/02 05:38:12;;;;;;;9.18;1.45;;;11.30;99.90;;;;;;5018969;28;20443;-50
2022/11/02 05:40:39;;;;;;;4.60;1.88;;;11.30;99.90;;;;;;5015430;28;20688;-51
2022/11/02 05:43:06;;;;;;;6.47;2.35;;;11.30;99.90;;;;;;5020810;28;20072;-52
2022/11/02 05:45:31;;;;;;;3.75;1.55;;;11.30;99.90;;;;;;5020446;28;20057;-52
2022/11/02 05:48:00;;;;;;;8.77;2.00;;;11.30;99.90;;;;;;5020126;28;20072;-50
2022/11/02 05:50:26;;;;;;;3.70;1.70;;;11.30;99.90;;;;;;5019082;28;20022;-52
2022/11/02 05:52:51;;;;;;;9.68;2.50;;;11.30;99.90;;;;;;5015662;28;20071;-52
2022/11/02 05:55:17;;;;;;;7.18;1.98;;;11.30;99.90;;;;;;5023577;28;20029;-50
2022/11/02 05:57:43;;;;;;;6.43;1.65;;;11.30;99.90;;;;;;5020492;28;20740;-53
2022/11/02 06:00:09;;;;;;;6.38;1.75;;;11.30;99.90;;;;;;5021379;28;20058;-51
2022/11/02 06:02:36;;;;;;;7.28;1.98;;;11.30;99.90;;;;;;5020374;28;20076;-51
2022/11/02 06:05:01;;;;;;;7.55;2.28;;;11.30;99.90;;;;;;5020583;28;20034;-50
2022/11/02 06:07:27;;;;;;;2.78;1.42;;;11.20;99.90;;;;;;5019909;28;20084;-55
2022/11/02 06:09:53;;;;;;;7.22;2.10;;;11.20;99.90;;;;;;5018727;28;20017;-54
2022/11/02 06:12:19;;;;;;;8.15;2.38;;;11.20;99.90;;;;;;5021316;28;20554;-50
2022/11/02 06:14:44;;;;;;;5.63;1.38;;;11.20;99.90;;;;;;5020093;28;20053;-52
2022/11/02 06:17:10;;;;;;;5.15;1.98;;;11.20;99.90;;;;;;5013753;28;20040;-51
2022/11/02 06:19:35;;;;;;;8.82;2.30;;;11.20;99.90;;;;;;5021989;28;20080;-55
2022/11/02 06:22:01;;;;;;;4.95;1.92;;;11.20;99.90;;;;;;5019514;28;20030;-55
2022/11/02 06:24:26;;;;;;;6.78;2.28;;;11.20;99.90;;;;;;5018274;28;20030;-53
2022/11/02 06:26:52;;;;;;;8.07;1.70;;;11.20;99.90;;;;;;5017416;28;20049;-54
2022/11/02 06:29:17;;;;;;;5.05;1.58;;;11.20;99.90;;;;;;5019708;28;20499;-55
2022/11/02 06:31:43;;;;;;;4.82;1.73;;;11.30;99.90;;;;;;5010749;28;20029;-50
2022/11/02 06:34:08;;;;;;;7.32;2.05;;;11.30;99.90;;;;;;5020308;28;20037;-55
2022/11/02 06:36:34;;;;;;;3.60;1.90;;;11.30;99.90;;;;;;5018162;28;20036;-54
2022/11/02 06:39:00;;;;;;;4.47;1.40;;;11.40;99.90;;;;;;5021287;28;20472;-52
2022/11/02 06:41:25;;;;;;;7.82;1.88;;;11.40;99.90;;;;;;5018889;28;20086;-50
2022/11/02 06:43:51;;;;;;;5.38;1.60;;;11.40;99.90;;;;;;5014518;28;20029;-51
2022/11/02 06:46:16;;;;;;;7.05;1.50;;;11.40;99.90;;;;;;5020585;28;20021;-52
2022/11/02 06:48:45;;;;;;;10.25;1.88;;;11.40;99.90;;;;;;5012435;28;20033;-51
2022/11/02 06:51:10;;;;;;;5.22;1.10;;;11.30;99.90;;;;;;5012184;28;20120;-58
2022/11/02 06:53:36;;;;;;;4.80;1.35;;;11.30;99.90;;;;;;5020499;28;20195;-51
2022/11/02 06:56:02;;;;;;;4.72;1.20;;;11.30;99.90;;;;;;5021760;28;20034;-50
2022/11/02 06:58:27;;;;;;;6.60;2.05;;;11.20;99.90;;;;;;5015441;28;20040;-52
2022/11/02 07:00:58;;;;;;;3.38;1.85;;;11.20;99.90;;;;;;5016986;28;20063;-51
2022/11/02 07:03:24;;;;;;;10.25;1.70;;;11.20;99.90;;;;;;5020533;28;20022;-50
2022/11/02 07:05:51;;;;;;;8.45;2.25;;;11.20;99.90;;;;;;5018824;28;20024;-50
2022/11/02 07:08:17;;;;;;;8.55;2.10;;;11.20;99.90;;;;;;5020771;28;20021;-50
2022/11/02 07:10:42;;;;;;;6.22;1.73;;;11.20;99.90;;;;;;5020879;28;20518;-52
2022/11/02 07:13:08;;;;;;;7.38;1.67;;;11.20;99.90;;;;;;5017663;28;20029;-53
2022/11/02 07:15:33;;;;;;;6.20;1.85;;;11.20;99.90;;;;;;5020704;28;20033;-51
2022/11/02 07:17:59;;;;;;;6.38;2.03;;;11.20;99.90;;;;;;5019099;28;20101;-54
2022/11/02 07:20:25;;;;;;;8.73;2.30;;;11.30;99.90;;;;;;5020676;28;20108;-50
2022/11/02 07:22:52;;;;;;;5.60;1.80;;;11.30;99.90;;;;;;5019802;28;20033;-51
2022/11/02 07:25:18;;;;;;;5.65;1.67;;;11.20;99.90;;;;;;5017075;28;20461;-51
2022/11/02 07:27:43;;;;;;;5.35;1.95;;;11.30;99.90;;;;;;5022873;28;20056;-54
2022/11/02 07:30:09;;;;;;;10.77;2.10;;;11.30;99.90;;;;;;5017635;28;20186;-50
2022/11/02 07:32:39;;;;;;;5.97;1.70;;;11.30;99.90;;;;;;5022212;28;20423;-51
2022/11/02 07:35:07;;;;;;;8.07;1.75;;;11.30;99.90;;;;;;5018173;28;20022;-50
2022/11/02 07:37:32;;;;;;;9.75;2.75;;;11.40;99.90;;;;;;5022740;28;20112;-51
2022/11/02 07:39:58;;;;;;;4.90;1.55;;;11.40;99.90;;;;;;5019050;28;20092;-54
2022/11/02 07:42:23;;;;;;;3.72;1.45;;;11.50;99.90;;;;;;5009034;28;20029;-52
2022/11/02 07:44:49;;;;;;;7.72;1.40;;;11.60;99.90;;;;;;5023223;28;20101;-52
2022/11/02 07:47:14;;;;;;;10.27;2.47;;;11.60;99.90;;;;;;5010600;28;20025;-53
2022/11/02 07:49:40;;;;;;;9.95;1.90;;;11.60;99.90;;;;;;5015997;28;20455;-55
2022/11/02 07:52:05;;;;;;;8.93;1.75;;;11.60;99.90;;;;;;5018948;28;20021;-50
2022/11/02 07:54:31;;;;;;;4.53;1.63;;;11.60;99.90;;;;;;5013174;28;20060;-50
2022/11/02 07:56:56;;;;;;;7.05;1.80;;;11.60;99.90;;;;;;5018697;28;20025;-53
2022/11/02 07:59:22;;;;;;;6.90;1.65;;;11.70;99.90;;;;;;5012382;28;20034;-51
2022/11/02 08:01:47;;;;;;;9.30;2.30;;;11.70;99.90;;;;;;5019076;28;20437;-51
2022/11/02 08:04:13;;;;;;;8.95;2.50;;;11.70;99.90;;;;;;5011021;28;20453;-53
2022/11/02 08:06:39;;;;;;;11.55;1.70;;;11.70;99.90;;;;;;5014384;28;20033;-53
2022/11/02 08:09:04;;;;;;;7.60;2.30;;;11.70;99.90;;;;;;5011079;28;20041;-51
2022/11/02 08:11:30;;;;;;;7.20;1.83;;;11.70;99.90;;;;;;5015407;28;20029;-53
2022/11/02 08:13:55;;;;;;;5.00;1.65;;;11.70;99.90;;;;;;5022361;28;20095;-54
2022/11/02 08:16:21;;;;;;;9.45;2.45;;;11.70;99.90;;;;;;5017494;28;20061;-53
2022/11/02 08:18:47;;;;;;;5.25;1.48;;;11.70;99.90;;;;;;5026997;28;20037;-54
2022/11/02 08:21:12;;;;;;;7.10;2.33;;;11.70;99.90;;;;;;5020100;28;20604;-50
2022/11/02 08:23:38;;;;;;;8.00;1.20;;;11.80;99.90;;;;;;5020187;28;20034;-52
2022/11/02 08:26:03;;;;;;;10.05;1.75;;;11.80;99.90;;;;;;5017380;28;20125;-54
2022/11/02 08:28:34;;;;;;;6.85;1.55;;;11.90;99.90;;;;;;5020155;28;20103;-52
2022/11/02 08:30:59;;;;;;;9.68;1.38;;;11.90;99.90;;;;;;5020613;28;20052;-53
2022/11/02 08:33:25;;;;;;;5.22;1.38;;;11.90;99.90;;;;;;5020002;28;20496;-51
2022/11/02 08:35:52;;;;;;;7.70;1.92;;;11.90;99.90;;;;;;5019301;28;20025;-50
2022/11/02 08:38:21;;;;;;;7.32;2.33;;;12.00;99.90;;;;;;5016625;28;20762;-56
2022/11/02 08:40:47;;;;;;;10.75;1.95;;;12.10;99.90;;;;;;5022304;28;20436;-56
2022/11/02 08:43:13;;;;;;;4.90;1.27;;;12.20;99.90;;;;;;5016733;28;20029;-54
2022/11/02 08:45:40;;;;;;;5.10;1.48;;;12.30;99.90;;;;;;5020818;28;20514;-51
2022/11/02 08:48:06;;;;;;;2.65;1.58;;;12.40;99.90;;;;;;5015713;28;20053;-54
2022/11/02 08:50:33;;;;;;;6.63;1.20;;;12.50;99.90;;;;;;5024298;28;20077;-53
2022/11/02 08:52:59;;;;;;;9.70;2.30;;;12.40;99.90;;;;;;5031958;23;20461;-49
2022/11/02 08:55:25;;;;;;;6.50;1.55;;;12.50;99.90;;;;;;4987095;28;20046;-48
2022/11/02 08:57:53;;;;;;;5.47;1.40;;;12.50;99.90;;;;;;4987175;28;20060;-49
2022/11/02 09:00:21;;;;;;;9.60;2.13;;;12.50;99.90;;;;;;4967934;28;20513;-53
2022/11/02 09:03:07;;;;;;;5.90;1.58;;;12.50;99.90;;;;;;4960875;28;20481;-49
2022/11/02 09:05:36;;;;;;;5.22;1.75;;;12.50;99.90;;;;;;4962064;28;20387;-46
2022/11/02 09:08:06;;;;;;;4.30;2.03;;;12.40;99.90;;;;;;4969139;28;20023;-49
2022/11/02 09:10:34;;;;;;;5.97;1.77;;;12.40;99.90;;;;;;4974453;28;20015;-48
2022/11/02 09:13:01;;;;;;;4.05;1.80;;;12.30;99.90;;;;;;4973837;28;20027;-50
2022/11/02 09:15:28;;;;;;;6.65;1.42;;;12.30;99.90;;;;;;4969171;28;20050;-49
2022/11/02 09:17:53;;;;;;;8.75;1.55;;;12.30;99.90;;;;;;4973205;28;20517;-51
2022/11/02 09:20:20;;;;;;;6.72;1.60;;;12.40;99.90;;;;;;4975054;28;20061;-52
2022/11/02 09:22:46;;;;;;;4.07;1.17;;;12.40;99.90;;;;;;4983173;28;20034;-49
2022/11/02 09:25:13;;;;;;;9.80;1.80;;;12.40;99.90;;;;;;4978962;28;20027;-47
2022/11/02 09:27:40;;;;;;;4.10;1.60;;;12.40;99.90;;;;;;4983062;28;20027;-47
2022/11/02 09:30:07;;;;;;;8.55;1.98;;;12.40;99.90;;;;;;4974189;28;20126;-47
2022/11/02 09:32:33;;;;;;;4.80;1.80;;;12.40;99.90;;;;;;4971074;28;20027;-46
2022/11/02 09:35:00;;;;;;;3.67;1.52;;;12.40;99.90;;;;;;4980775;28;20073;-47
2022/11/02 09:37:26;;;;;;;4.95;2.03;;;12.40;99.90;;;;;;4985568;28;20025;-49
2022/11/02 09:39:52;;;;;;;5.95;2.05;;;12.40;99.90;;;;;;4982497;28;20019;-48
2022/11/02 09:42:24;;;;;;;4.57;1.67;;;12.50;99.90;;;;;;4971215;28;20027;-51
2022/11/02 09:45:03;;;;;;;5.25;1.88;;;12.50;99.90;;;;;;4971379;28;20414;-48
2022/11/02 09:47:32;;;;;;;7.07;2.03;;;12.50;99.90;;;;;;4981175;28;20031;-49
2022/11/02 09:50:01;;;;;;;8.98;1.60;;;12.50;99.90;;;;;;4986465;28;20501;-47
2022/11/02 09:52:32;;;;;;;6.38;1.90;;;12.50;99.90;;;;;;4978309;28;20068;-48
2022/11/02 09:54:59;;;;;;;7.97;1.70;;;12.40;99.90;;;;;;4982558;28;20033;-53
2022/11/02 09:57:31;;;;;;;4.32;1.27;;;12.30;99.90;;;;;;4974383;28;20027;-48
2022/11/02 10:00:00;;;;;;;9.95;1.60;;;12.30;99.90;;;;;;4977365;28;20054;-48
2022/11/02 10:02:40;;;;;;;11.88;1.83;;;12.30;99.90;;;;;;4983065;28;20027;-51
2022/11/02 10:05:14;;;;;;;6.22;1.52;;;12.30;99.90;;;;;;4979755;28;20066;-50
2022/11/02 10:08:07;;;;;;;5.55;1.60;;;12.40;99.90;;;;;;4979686;28;20053;-51
2022/11/02 10:10:51;;;;;;;10.48;1.75;;;12.50;99.90;;;;;;4973330;28;20026;-53
2022/11/02 10:13:39;;;;;;;4.53;1.83;;;12.50;99.90;;;;;;4980031;28;20026;-47
2022/11/02 10:16:14;;;;;;;6.18;1.88;;;12.60;99.90;;;;;;4980695;28;20030;-49
2022/11/02 10:18:41;;;;;;;10.27;1.60;;;12.70;99.90;;;;;;4985112;28;20473;-50
2022/11/02 10:21:14;;;;;;;3.97;2.13;;;12.70;99.90;;;;;;4969379;28;20066;-52
2022/11/02 10:23:52;;;;;;;5.65;1.38;;;12.70;99.90;;;;;;4978556;28;20043;-51
2022/11/02 10:26:23;;;;;;;7.65;1.20;;;12.70;99.90;;;;;;4978639;28;20382;-48
2022/11/02 10:28:56;;;;;;;5.15;1.60;;;12.60;99.90;;;;;;4979134;28;20027;-48
2022/11/02 10:31:31;;;;;;;3.15;1.35;;;12.50;99.90;;;;;;4982072;28;20547;-48
2022/11/02 10:34:10;;;;;;;5.72;1.58;;;12.40;99.90;;;;;;4979557;28;20030;-49
2022/11/02 10:36:49;;;;;;;5.13;1.40;;;12.40;99.90;;;;;;4981417;28;20033;-50
2022/11/02 10:39:27;;;;;;;4.28;1.17;;;12.40;99.90;;;;;;4966927;28;20023;-47
2022/11/02 10:42:05;;;;;;;1.80;1.20;;;12.50;99.90;;;;;;4981662;28;20097;-50
2022/11/02 10:44:46;;;;;;;3.78;1.60;;;12.60;99.90;;;;;;4977160;28;20033;-52
2022/11/02 10:47:26;;;;;;;3.03;1.17;;;12.60;99.90;;;;;;4977494;28;20385;-49
2022/11/02 10:50:29;;;;;;;3.85;1.38;;;12.60;99.90;;;;;;4980339;28;20113;-51
2022/11/02 10:53:00;;;;;;;8.45;1.60;;;12.70;99.90;;;;;;4961923;28;20461;-49
2022/11/02 10:55:38;;;;;;;1.65;0.60;;;12.80;99.90;;;;;;4972695;28;20035;-50
2022/11/02 10:58:07;;;;;;;3.33;0.75;;;12.90;99.90;;;;;;4979526;28;20425;-50
2022/11/02 11:00:35;;;;;;;3.40;0.90;;;12.90;99.90;;;;;;4976679;28;20106;-50
2022/11/02 11:03:14;;;;;;;5.95;0.75;;;12.90;99.90;;;;;;4980449;28;20113;-51
2022/11/02 11:06:03;;;;;;;7.03;1.60;;;12.90;99.90;;;;;;4975119;28;20382;-50
2022/11/02 11:08:38;;;;;;;2.45;0.93;;;12.70;99.90;;;;;;4982239;28;20370;-51
2022/11/02 11:11:26;;;;;;;4.60;1.55;;;12.60;99.90;;;;;;4981082;28;20498;-48
2022/11/02 11:13:53;;;;;;;3.80;1.35;;;12.50;99.90;;;;;;4983717;28;20034;-46
2022/11/02 11:16:29;;;;;;;6.00;1.38;;;12.50;99.90;;;;;;4976350;28;20034;-50
2022/11/02 11:18:55;;;;;;;;;;;12.50;99.90;;;;;;4985488;28;20033;-47
2022/11/02 11:21:21;;;;;;;5.87;1.27;;;12.50;99.90;;;;;;4981869;28;19910;-53
2022/11/02 11:23:46;;;;;;;9.43;1.45;;;12.50;99.90;;;;;;4976612;28;20093;-53
2022/11/02 11:26:27;;;;;;;2.92;1.17;;;12.50;99.90;;;;;;4975364;28;20505;-49
2022/11/02 11:28:54;;;;;;;3.35;0.98;;;12.50;99.90;;;;;;4979770;28;20727;-51
2022/11/02 11:31:20;;;;;;;3.67;1.40;;;12.60;99.90;;;;;;4980603;28;20480;-47
2022/11/02 11:33:46;;;;;;;4.03;1.33;;;12.70;99.90;;;;;;4975636;28;20029;-47
2022/11/02 11:36:46;;;;;;;3.55;1.42;;;12.80;99.90;;;;;;4982045;28;20472;-48
2022/11/02 11:39:27;;;;;;;6.35;0.80;;;12.80;99.90;;;;;;4979739;28;20524;-51
2022/11/02 11:41:52;;;;;;;4.90;1.05;;;12.90;99.90;;;;;;4981547;28;20485;-46
2022/11/02 11:44:20;;;;;;;3.20;1.10;;;13.00;99.90;;;;;;4980792;28;20022;-48
2022/11/02 11:46:50;;;;;;;6.93;2.22;;;13.00;99.90;;;;;;4982016;28;20432;-49
2022/11/02 11:49:22;;;;;;;4.72;1.13;;;13.10;99.90;;;;;;4980081;28;20027;-48
2022/11/02 11:51:51;;;;;;;3.33;0.85;;;13.20;99.90;;;;;;4986153;28;20069;-47
2022/11/02 11:54:28;;;;;;;4.05;0.90;;;13.30;99.90;;;;;;4986759;28;20534;-47
2022/11/02 11:56:56;;;;;;;2.83;1.02;;;13.40;99.90;;;;;;4986400;28;20050;-50
2022/11/02 11:59:28;;;;;;;4.53;0.80;;;13.30;99.90;;;;;;4985002;28;20154;-46
2022/11/02 12:01:57;;;;;;;4.00;0.80;;;13.30;99.90;;;;;;4991273;28;20093;-51
2022/11/02 12:04:32;;;;;;;4.88;1.00;;;13.30;99.90;;;;;;4984727;28;20033;-49
2022/11/02 12:07:05;;;;;;;7.57;1.10;;;13.20;99.90;;;;;;4992171;28;20054;-48
2022/11/02 12:09:42;;;;;;;3.58;1.00;;;13.10;99.90;;;;;;4984519;28;20029;-47
2022/11/02 12:12:27;;;;;;;3.03;1.00;;;13.20;99.90;;;;;;4986358;28;20053;-49
2022/11/02 12:15:21;;;;;;;2.30;0.77;;;13.20;99.90;;;;;;4984909;28;20033;-48
2022/11/02 12:17:58;;;;;;;4.32;1.00;;;13.30;99.90;;;;;;4962401;28;20046;-47
2022/11/02 12:20:47;;;;;;;6.72;1.15;;;13.40;99.90;;;;;;4976269;28;20025;-47
2022/11/02 12:23:31;;;;;;;4.18;1.10;;;13.50;99.90;;;;;;4978401;28;20035;-49
2022/11/02 12:26:34;;;;;;;4.43;0.98;;;13.50;99.90;;;;;;4985573;28;20023;-50
2022/11/02 12:29:22;;;;;;;3.90;0.88;;;13.50;99.90;;;;;;4982889;28;20643;-46
2022/11/02 12:32:20;;;;;;;2.25;0.80;;;13.50;99.90;;;;;;4969146;28;20037;-47
2022/11/02 12:34:57;;;;;;;5.30;1.20;;;13.60;99.90;;;;;;4970235;28;20197;-49
2022/11/02 12:37:42;;;;;;;2.15;0.50;;;13.60;99.90;;;;;;4988401;28;20507;-48
2022/11/02 12:40:22;;;;;;;2.85;0.30;;;13.70;99.90;;;;;;4979719;28;20497;-48
2022/11/02 12:43:00;;;;;;;0.47;0.30;;;13.60;99.90;;;;;;4997238;28;20058;-47
2022/11/02 12:45:28;;;;;;;1.15;0.38;;;13.50;99.90;;;;;;4984677;28;20018;-48
2022/11/02 12:47:56;;;;;;;0.50;0.20;;;13.40;99.90;;;;;;4985196;28;20027;-53
2022/11/02 12:50:52;;;;;;;2.47;0.70;;;13.30;99.90;;;;;;4990782;28;20027;-58
2022/11/02 12:53:33;;;;;;;1.52;0.32;;;13.30;99.90;;;;;;4981659;28;20041;-56
2022/11/02 12:56:01;;;;;;;1.63;0.30;;;13.10;99.90;;;;;;4985624;28;20059;-57
2022/11/02 12:58:36;;;;;;;1.10;0.52;;;13.10;99.90;;;;;;4978386;28;20113;-57
2022/11/02 13:01:05;;;;;;;10.88;1.90;;;13.10;99.90;;;;;;4984147;28;20518;-59
2022/11/02 13:03:41;;;;;;;5.85;1.02;;;13.30;99.90;;;;;;4983387;28;20104;-57
2022/11/02 13:06:09;;;;;;;;;;;13.40;99.90;;;;;;4980046;28;20038;-56
2022/11/02 13:08:53;;;;;;;8.20;2.15;;;13.60;99.90;;;;;;4982067;28;19913;-54
2022/11/02 13:11:32;;;;;;;3.17;1.05;;;13.70;99.90;;;;;;4978572;28;20520;-55
2022/11/02 13:14:01;;;;;;;8.73;2.13;;;13.90;99.90;;;;;;4985425;28;20030;-56
2022/11/02 13:16:39;;;;;;;4.28;1.70;;;13.90;99.90;;;;;;4980910;28;20194;-53
2022/11/02 13:19:11;;;;;;;2.08;0.88;;;14.00;99.90;;;;;;4986404;28;20060;-52
2022/11/02 13:21:42;;;;;;;2.70;0.90;;;14.00;99.90;;;;;;4979396;28;20042;-60